Hayward Executive Airport

Airport
ICAO code: 
KHWD
Summary
ICAO Region: 
NAM
Territory: 
Location: 
Hayward, Alameda County, California,
Elevation: 
52 ft
Coordinates: 
Aerial View: 
37° 39' 31.994" N, 122° 7' 18.451" W
Metar
Observation
KHWD 020854Z AUTO 07004KT 8SM CLR 12/08 A3009 RMK AO2 SLP198 T01170078 58002
Station
Hayward, Hayward Air Terminal
Date/Time
2021-12-02 08:54:00
Wind direction
70°
Wind speed
04 kts
Lowest cloud amount
n/a
Temperature
11.7°C
Dew point
7.8°C
Humidity
76%
Weather condition
n/a

Description

Hayward Executive Airport is a city owned, public use airport located two nautical miles (4 km) west of the central business district of Hayward, a city in Alameda County, California, United States. This general aviation towered airport is situated near the eastern shore of San Francisco Bay. It was formerly known as Hayward Air Terminal.

Runways

Designator Length Width Surface Rops
10L/28R 947 23 ASP Yes/Yes
10R/28L 1736 46 ASP Yes/Yes
Airport map: 
Aerial View: 

SKYbrary Partners:

Safety knowledge contributed by: